METAR Data
IDs: Format: Raw Decoded Include TAF

Data at: 1316 UTC 08 May 2021

METAR for:KVUJ (Albemarle/Stanly Cnt, NC, US)
Text:KVUJ 081255Z AUTO 27004KT 10SM CLR 14/06 A3007 RMK AO2 T01370057
Temperature: 13.7°C ( 57°F)
Dewpoint: 5.7°C ( 42°F) [RH = 58%]
Pressure (altimeter):30.07 inches Hg (1018.4 mb)
Winds:from the W (270 degrees) at 5 MPH (4 knots; 2.1 m/s)
Visibility:10 or more sm (16+ km)
Ceiling:at least 12,000 feet AGL
Clouds:sky clear below 12,000 feet AGL
QC Flag:automated observation with no human augmentation